Time;durP1;ratioP1;P1;durP2;ratioP2;P2;SDS_P1;SDS_P2;PMS_P1;PMS_P2;Temp;Humidity;BMP_temperature;BMP_pressure;BME280_temperature;BME280_humidity;BME280_pressure;Samples;Min_cycle;Max_cycle;Signal;HPM_P1;HPM_P2
2024/01/29 00:02:02;;;;;;;1999.90;999.90;;;4.50;99.90;;;;;;5008252;28;20030;-82
2024/01/29 00:04:28;;;;;;;1999.90;999.90;;;4.50;99.90;;;;;;5025371;28;20483;-83
2024/01/29 00:06:54;;;;;;;1999.90;999.90;;;5.10;99.90;;;;;;4991631;28;20073;-82
2024/01/29 00:09:20;;;;;;;1999.90;999.90;;;5.10;99.90;;;;;;5007299;28;20069;-82
2024/01/29 00:11:48;;;;;;;1999.90;999.90;;;4.50;99.90;;;;;;5024788;28;20117;-82
2024/01/29 00:14:14;;;;;;;1999.90;999.90;;;4.50;99.90;;;;;;5007248;28;20080;-82
2024/01/29 00:16:40;;;;;;;1999.90;999.90;;;4.50;99.90;;;;;;5007537;28;20042;-82
2024/01/29 00:19:05;;;;;;;1999.90;999.90;;;4.50;99.90;;;;;;5040806;28;20030;-83
2024/01/29 00:21:31;;;;;;;1999.90;999.90;;;5.00;99.90;;;;;;5022655;28;20506;-82
2024/01/29 00:24:00;;;;;;;1999.90;999.90;;;4.40;99.90;;;;;;4972103;28;20038;-83
2024/01/29 00:26:26;;;;;;;1999.90;999.90;;;4.50;99.90;;;;;;5017917;28;20559;-81
2024/01/29 00:28:52;;;;;;;1999.90;999.90;;;4.50;99.90;;;;;;5023793;28;20054;-82
2024/01/29 00:31:18;;;;;;;1999.90;999.90;;;4.50;99.90;;;;;;5008392;28;20451;-82
2024/01/29 00:33:46;;;;;;;1999.90;999.90;;;4.50;99.90;;;;;;5006900;28;20037;-82
2024/01/29 00:36:11;;;;;;;1999.90;999.90;;;5.90;99.90;;;;;;5007459;28;20050;-82
2024/01/29 00:38:37;;;;;;;1999.90;999.90;;;4.50;99.90;;;;;;5024490;28;20123;-83
2024/01/29 00:41:03;;;;;;;1999.90;999.90;;;5.50;99.90;;;;;;5023556;28;20042;-82
2024/01/29 00:43:28;;;;;;;1999.90;999.90;;;4.50;99.90;;;;;;5008465;28;20077;-83
2024/01/29 00:45:54;;;;;;;1999.90;999.90;;;4.40;99.90;;;;;;5008395;28;20069;-82
2024/01/29 00:48:22;;;;;;;1999.90;999.90;;;5.60;99.90;;;;;;5024178;28;20091;-82
2024/01/29 00:50:48;;;;;;;1999.90;999.90;;;4.40;99.90;;;;;;5007786;28;20499;-82
2024/01/29 00:53:15;;;;;;;1999.90;999.90;;;4.40;99.90;;;;;;5008486;28;20042;-82
2024/01/29 00:55:48;;;;;;;1999.90;999.90;;;4.30;99.90;;;;;;5007133;28;20042;-82
2024/01/29 00:58:14;;;;;;;1999.90;999.90;;;4.30;99.90;;;;;;4986864;28;20583;-82
2024/01/29 01:00:41;;;;;;;1999.90;999.90;;;4.20;99.90;;;;;;5054426;28;20108;-82
2024/01/29 01:03:08;;;;;;;1999.90;999.90;;;4.20;99.90;;;;;;5005944;28;20040;-82
2024/01/29 01:05:34;;;;;;;1999.90;999.90;;;4.30;99.90;;;;;;5006843;28;20121;-83
2024/01/29 01:08:01;;;;;;;1999.90;999.90;;;4.20;99.90;;;;;;5023004;28;20488;-83
2024/01/29 01:10:27;;;;;;;1999.90;999.90;;;4.20;99.90;;;;;;5002832;28;20049;-84
2024/01/29 01:12:53;;;;;;;1999.90;999.90;;;4.20;99.90;;;;;;4983765;28;20034;-83
2024/01/29 01:15:19;;;;;;;1999.90;999.90;;;4.20;99.90;;;;;;5016279;28;20054;-84
2024/01/29 01:17:48;;;;;;;1999.90;999.90;;;4.10;99.90;;;;;;5001152;28;20049;-84
2024/01/29 01:20:14;;;;;;;1999.90;999.90;;;5.20;99.90;;;;;;5000895;28;20441;-83
2024/01/29 01:22:39;;;;;;;1999.90;999.90;;;4.10;99.90;;;;;;5017055;28;20038;-84
2024/01/29 01:25:06;;;;;;;1999.90;999.90;;;5.30;99.90;;;;;;4996608;28;20067;-83
2024/01/29 01:27:35;;;;;;;1999.90;999.90;;;4.10;99.90;;;;;;5013745;28;20446;-83
2024/01/29 01:30:00;;;;;;;1999.90;558.85;;;4.10;99.90;;;;;;5002425;28;20041;-83
2024/01/29 01:32:26;;;;;;;1999.90;937.00;;;5.00;99.90;;;;;;5002221;28;20461;-84
2024/01/29 01:34:52;;;;;;;1999.90;866.63;;;4.10;99.90;;;;;;5002235;28;20072;-84
2024/01/29 01:37:19;;;;;;;1999.90;960.03;;;4.80;99.90;;;;;;5024382;28;20475;-83
2024/01/29 01:39:44;;;;;;;1999.90;999.90;;;4.60;99.90;;;;;;5009849;28;20124;-83
2024/01/29 01:42:13;;;;;;;1999.90;999.90;;;4.00;99.90;;;;;;5009133;28;20052;-84
2024/01/29 01:44:38;;;;;;;1999.90;999.90;;;4.10;99.90;;;;;;5003982;28;20483;-84
2024/01/29 01:47:04;;;;;;;1999.90;999.90;;;3.90;99.90;;;;;;4988457;28;20084;-83
2024/01/29 01:49:31;;;;;;;1999.90;999.90;;;5.00;99.90;;;;;;5021264;28;20495;-83
2024/01/29 01:51:57;;;;;;;1999.90;999.90;;;3.80;99.90;;;;;;5003886;28;20100;-84
2024/01/29 01:54:23;;;;;;;1999.90;999.90;;;3.80;99.90;;;;;;5004020;28;20045;-84
2024/01/29 01:56:49;;;;;;;1999.90;999.90;;;3.80;99.90;;;;;;5004011;28;20140;-84
2024/01/29 01:59:14;;;;;;;1999.90;999.90;;;3.80;99.90;;;;;;5008097;28;20513;-83
2024/01/29 02:01:42;;;;;;;1999.90;999.90;;;3.70;99.90;;;;;;5009674;28;20030;-83
2024/01/29 02:04:08;;;;;;;1999.90;999.90;;;3.70;99.90;;;;;;5007302;28;20050;-83
2024/01/29 02:06:34;;;;;;;1999.90;999.90;;;3.60;99.90;;;;;;5003820;28;20045;-84
2024/01/29 02:09:00;;;;;;;1999.90;999.90;;;3.60;99.90;;;;;;5003454;28;20130;-84
2024/01/29 02:11:26;;;;;;;1999.90;999.90;;;4.50;99.90;;;;;;5002973;28;20046;-83
2024/01/29 02:13:51;;;;;;;1999.90;999.90;;;4.60;99.90;;;;;;5002850;28;20053;-83
2024/01/29 02:16:20;;;;;;;1999.90;999.90;;;4.10;99.90;;;;;;5025926;28;20136;-83
2024/01/29 02:18:45;;;;;;;1999.90;999.90;;;3.30;99.90;;;;;;5010610;28;20677;-83
2024/01/29 02:21:11;;;;;;;1999.90;999.90;;;4.10;99.90;;;;;;5011045;28;20048;-82
2024/01/29 02:23:37;;;;;;;1999.90;999.90;;;4.60;99.90;;;;;;5009936;28;20117;-83
2024/01/29 02:26:03;;;;;;;1999.90;999.90;;;4.10;99.90;;;;;;5009367;28;20037;-84
2024/01/29 02:28:31;;;;;;;1999.90;999.90;;;3.20;99.90;;;;;;5010765;28;20038;-83
2024/01/29 02:31:00;;;;;;;1999.90;999.90;;;3.20;99.90;;;;;;5026748;28;20038;-82
2024/01/29 02:33:26;;;;;;;1999.90;999.90;;;3.10;99.90;;;;;;5010478;28;20062;-82
2024/01/29 02:35:51;;;;;;;1999.90;999.90;;;3.10;99.90;;;;;;5025896;28;20038;-84
2024/01/29 02:38:20;;;;;;;1999.90;999.90;;;3.00;99.90;;;;;;5026997;28;20100;-83
2024/01/29 02:40:46;;;;;;;1999.90;999.90;;;2.80;99.90;;;;;;5025930;28;20037;-83
2024/01/29 02:43:11;;;;;;;1999.90;999.90;;;3.00;99.90;;;;;;5008998;28;20041;-83
2024/01/29 02:45:37;;;;;;;1999.90;999.90;;;2.90;99.90;;;;;;5008809;28;20034;-83
2024/01/29 02:48:03;;;;;;;1999.90;999.90;;;3.90;99.90;;;;;;5025392;28;20303;-83
2024/01/29 02:50:30;;;;;;;1999.90;999.90;;;2.80;99.90;;;;;;5042976;28;20037;-83
2024/01/29 02:52:55;;;;;;;1999.90;999.90;;;2.80;99.90;;;;;;5024509;28;20064;-83
2024/01/29 02:55:21;;;;;;;1999.90;999.90;;;2.80;99.90;;;;;;5002715;28;20462;-84
2024/01/29 02:57:47;;;;;;;1999.90;999.90;;;2.80;99.90;;;;;;5002239;28;20038;-83
2024/01/29 03:00:12;;;;;;;1999.90;999.90;;;2.80;99.90;;;;;;5018797;28;20034;-83
2024/01/29 03:02:38;;;;;;;1999.90;999.90;;;2.70;99.90;;;;;;5002442;28;20498;-83
2024/01/29 03:05:04;;;;;;;1999.90;999.90;;;2.70;99.90;;;;;;5002906;28;20057;-84
2024/01/29 03:07:30;;;;;;;1999.90;999.90;;;2.70;99.90;;;;;;5003444;28;20045;-83
2024/01/29 03:09:55;;;;;;;1999.90;999.90;;;2.70;99.90;;;;;;5001763;28;20046;-83
2024/01/29 03:12:21;;;;;;;1999.90;999.90;;;2.70;99.90;;;;;;5002525;28;20030;-84
2024/01/29 03:14:46;;;;;;;1999.90;999.90;;;3.80;99.90;;;;;;5001936;28;20049;-83
2024/01/29 03:17:12;;;;;;;1999.90;999.90;;;2.70;99.90;;;;;;5002816;28;20049;-84
2024/01/29 03:19:39;;;;;;;1999.90;999.90;;;2.80;99.90;;;;;;5018505;28;20483;-84
2024/01/29 03:22:05;;;;;;;1999.90;999.90;;;3.90;99.90;;;;;;4986883;28;20038;-83
2024/01/29 03:24:31;;;;;;;1999.90;999.90;;;2.60;99.90;;;;;;5002746;28;20034;-83
2024/01/29 03:26:59;;;;;;;1999.90;999.90;;;2.60;99.90;;;;;;5023781;28;20125;-82
2024/01/29 03:29:25;;;;;;;1999.90;999.90;;;2.50;99.90;;;;;;5025571;28;20042;-83
2024/01/29 03:31:50;;;;;;;1999.90;999.90;;;2.50;99.90;;;;;;5024934;28;20065;-82
2024/01/29 03:34:16;;;;;;;1999.90;999.90;;;3.30;99.90;;;;;;5007709;28;20048;-83
2024/01/29 03:36:46;;;;;;;1999.90;999.90;;;3.60;99.90;;;;;;5009196;28;20037;-83
2024/01/29 03:39:12;;;;;;;1999.90;999.90;;;2.60;99.90;;;;;;5024271;28;20514;-83
2024/01/29 03:41:38;;;;;;;1999.90;999.90;;;3.10;99.90;;;;;;5023946;28;20041;-82
2024/01/29 03:44:04;;;;;;;1999.90;999.90;;;3.30;99.90;;;;;;5023658;28;20096;-83
2024/01/29 03:46:29;;;;;;;1999.90;999.90;;;2.60;99.90;;;;;;5007565;28;20446;-82
2024/01/29 03:48:55;;;;;;;1999.90;999.90;;;2.60;99.90;;;;;;5003817;28;20462;-85
2024/01/29 03:51:20;;;;;;;1999.90;999.90;;;2.60;99.90;;;;;;5002179;28;20041;-84
2024/01/29 03:53:46;;;;;;;1999.90;999.90;;;3.50;99.90;;;;;;5018795;28;20046;-84
2024/01/29 03:56:15;;;;;;;1999.90;999.90;;;3.90;99.90;;;;;;5001739;28;20048;-84
2024/01/29 03:58:43;;;;;;;1999.90;999.90;;;2.60;99.90;;;;;;5019054;28;20068;-83
2024/01/29 04:01:09;;;;;;;1999.90;999.90;;;2.60;99.90;;;;;;5002422;28;20034;-84
2024/01/29 04:03:37;;;;;;;1999.90;999.90;;;2.60;99.90;;;;;;5002340;28;20045;-83
2024/01/29 04:06:05;;;;;;;1999.90;999.90;;;2.60;99.90;;;;;;4999180;28;20490;-84
2024/01/29 04:08:30;;;;;;;1999.90;999.90;;;2.60;99.90;;;;;;4985790;28;20130;-84
2024/01/29 04:10:56;;;;;;;1999.90;999.90;;;3.30;99.90;;;;;;5018515;28;20061;-83
2024/01/29 04:13:21;;;;;;;1999.90;999.90;;;2.60;99.90;;;;;;5002084;28;20030;-84
2024/01/29 04:15:47;;;;;;;1999.90;999.90;;;3.00;99.90;;;;;;5017448;28;20133;-84
2024/01/29 04:18:14;;;;;;;1999.90;999.90;;;2.70;99.90;;;;;;5018697;28;20084;-84
2024/01/29 04:20:41;;;;;;;1999.90;999.90;;;2.70;99.90;;;;;;5002730;28;20038;-83
2024/01/29 04:23:08;;;;;;;1999.90;999.90;;;2.70;99.90;;;;;;5002400;28;20522;-84
2024/01/29 04:25:37;;;;;;;1999.90;999.90;;;2.70;99.90;;;;;;5001289;28;20165;-83
2024/01/29 04:28:03;;;;;;;1999.90;999.90;;;2.70;99.90;;;;;;5000709;28;20046;-84
2024/01/29 04:30:29;;;;;;;1999.90;999.90;;;2.70;99.90;;;;;;5000525;28;20034;-84
2024/01/29 04:32:54;;;;;;;1999.90;999.90;;;2.70;99.90;;;;;;5018184;28;20038;-84
2024/01/29 04:35:20;;;;;;;1999.90;999.90;;;2.80;99.90;;;;;;5000662;28;20038;-84
2024/01/29 04:37:45;;;;;;;1999.90;999.90;;;2.80;99.90;;;;;;5001343;28;20033;-84
2024/01/29 04:40:12;;;;;;;1999.90;999.90;;;4.20;99.90;;;;;;5000782;28;20034;-83
2024/01/29 04:42:40;;;;;;;1999.90;999.90;;;2.80;99.90;;;;;;5018227;28;20034;-84
2024/01/29 04:45:09;;;;;;;1999.90;999.90;;;2.80;99.90;;;;;;5000709;28;20085;-83
2024/01/29 04:47:35;;;;;;;1999.90;999.90;;;2.80;99.90;;;;;;4999954;28;20038;-83
2024/01/29 04:50:07;;;;;;;1999.90;999.90;;;4.10;99.90;;;;;;5001547;28;20069;-84
2024/01/29 04:52:32;;;;;;;1999.90;999.90;;;2.80;99.90;;;;;;4999971;28;20041;-83
2024/01/29 04:55:01;;;;;;;1999.90;999.90;;;2.80;99.90;;;;;;5018074;28;20073;-83
2024/01/29 04:57:28;;;;;;;1999.90;999.90;;;2.80;99.90;;;;;;5017695;28;20088;-83
2024/01/29 04:59:53;;;;;;;1999.90;999.90;;;2.80;99.90;;;;;;5000647;28;20119;-83
2024/01/29 05:02:19;;;;;;;1999.90;999.90;;;2.90;99.90;;;;;;5000602;28;20066;-84
2024/01/29 05:04:46;;;;;;;1999.90;999.90;;;2.80;99.90;;;;;;5017285;28;20038;-84
2024/01/29 05:07:14;;;;;;;1999.90;999.90;;;2.80;99.90;;;;;;4999452;28;20042;-84
2024/01/29 05:09:44;;;;;;;1999.90;999.90;;;2.80;99.90;;;;;;5020082;28;20076;-83
2024/01/29 05:12:10;;;;;;;1999.90;999.90;;;2.80;99.90;;;;;;5027080;28;20042;-83
2024/01/29 05:14:35;;;;;;;1999.90;999.90;;;2.70;99.90;;;;;;5027118;28;20050;-82
2024/01/29 05:17:05;;;;;;;1999.90;999.90;;;2.70;99.90;;;;;;5057556;28;20057;-82
2024/01/29 05:19:34;;;;;;;1999.90;999.90;;;2.80;99.90;;;;;;5028454;28;20037;-83
2024/01/29 05:22:01;;;;;;;1999.90;999.90;;;2.80;99.90;;;;;;5010910;28;20110;-83
2024/01/29 05:24:30;;;;;;;1999.90;999.90;;;2.80;99.90;;;;;;5010968;28;20037;-84
2024/01/29 05:26:55;;;;;;;1999.90;999.90;;;2.80;99.90;;;;;;5011490;28;20048;-83
2024/01/29 05:29:40;;;;;;;1999.90;999.90;;;3.50;99.90;;;;;;5026712;28;20461;-82
2024/01/29 05:32:06;;;;;;;1999.90;999.90;;;3.70;99.90;;;;;;5021537;28;20060;-84
2024/01/29 05:34:33;;;;;;;1999.90;999.90;;;2.80;99.90;;;;;;5011075;28;20030;-83
2024/01/29 05:36:59;;;;;;;1999.90;999.90;;;2.80;99.90;;;;;;5009778;28;20110;-83
2024/01/29 05:39:24;;;;;;;1999.90;999.90;;;4.00;99.90;;;;;;5026137;28;20065;-83
2024/01/29 05:41:50;;;;;;;1999.90;999.90;;;2.90;99.90;;;;;;5009474;28;20223;-82
2024/01/29 05:44:15;;;;;;;1999.90;999.90;;;2.90;99.90;;;;;;5009534;28;20103;-83
2024/01/29 05:46:41;;;;;;;1999.90;999.90;;;2.90;99.90;;;;;;5009823;28;20084;-83
2024/01/29 05:49:08;;;;;;;1999.90;999.90;;;3.40;99.90;;;;;;5010014;28;20097;-82
2024/01/29 05:51:34;;;;;;;1999.90;999.90;;;2.90;99.90;;;;;;5025649;28;20101;-82
2024/01/29 05:54:00;;;;;;;1999.90;999.90;;;3.40;99.90;;;;;;5025256;28;20467;-82
2024/01/29 05:56:25;;;;;;;1999.90;999.90;;;3.40;99.90;;;;;;5008505;28;20042;-83
2024/01/29 05:58:51;;;;;;;1999.90;999.90;;;2.90;99.90;;;;;;5010037;28;20038;-83
2024/01/29 06:01:20;;;;;;;1999.90;999.90;;;2.90;99.90;;;;;;5026956;28;20063;-83
2024/01/29 06:03:45;;;;;;;1999.90;999.90;;;2.90;99.90;;;;;;4993396;28;20066;-83
2024/01/29 06:06:11;;;;;;;1999.90;999.90;;;2.90;99.90;;;;;;5025187;28;20038;-82
2024/01/29 06:08:38;;;;;;;1999.90;999.90;;;2.90;99.90;;;;;;5026460;28;20033;-83
2024/01/29 06:11:03;;;;;;;1999.90;999.90;;;2.90;99.90;;;;;;4994879;28;20534;-83
2024/01/29 06:13:29;;;;;;;1999.90;999.90;;;3.90;99.90;;;;;;5025246;28;20057;-83
2024/01/29 06:15:56;;;;;;;1999.90;999.90;;;2.90;99.90;;;;;;5008200;28;20049;-83
2024/01/29 06:18:22;;;;;;;1999.90;999.90;;;2.90;99.90;;;;;;4992133;28;20041;-83
2024/01/29 06:20:49;;;;;;;1999.90;999.90;;;3.80;99.90;;;;;;5024018;28;20044;-82
2024/01/29 06:23:15;;;;;;;1999.90;999.90;;;3.00;99.90;;;;;;5008120;28;20037;-83
2024/01/29 06:25:40;;;;;;;1999.90;999.90;;;3.00;99.90;;;;;;5008628;28;20057;-82
2024/01/29 06:28:07;;;;;;;1999.90;999.90;;;3.00;99.90;;;;;;5026124;28;20121;-83
2024/01/29 06:30:33;;;;;;;1999.90;999.90;;;3.00;99.90;;;;;;5009301;28;20037;-83
2024/01/29 06:32:59;;;;;;;1999.90;999.90;;;4.00;99.90;;;;;;5009745;28;20085;-83
2024/01/29 06:35:24;;;;;;;1999.90;999.90;;;3.20;99.90;;;;;;5008833;28;20037;-83
2024/01/29 06:37:50;;;;;;;1999.90;999.90;;;4.20;99.90;;;;;;5042270;28;20056;-83
2024/01/29 06:40:16;;;;;;;1999.90;999.90;;;3.00;99.90;;;;;;5008063;28;20034;-83
2024/01/29 06:42:43;;;;;;;1999.90;999.90;;;4.00;99.90;;;;;;5008229;28;20034;-82
2024/01/29 06:45:09;;;;;;;1999.90;999.90;;;3.30;99.90;;;;;;5024215;28;20072;-83
2024/01/29 06:47:34;;;;;;;1999.90;999.90;;;3.00;99.90;;;;;;5007956;28;20033;-82
2024/01/29 06:50:03;;;;;;;1999.90;999.90;;;3.00;99.90;;;;;;5024495;28;20034;-83
2024/01/29 06:52:29;;;;;;;1999.90;999.90;;;3.00;99.90;;;;;;5008039;28;20041;-83
2024/01/29 06:54:55;;;;;;;1999.90;999.90;;;3.80;99.90;;;;;;5008270;28;20125;-82
2024/01/29 06:57:21;;;;;;;1999.90;999.90;;;3.00;99.90;;;;;;5007142;28;20044;-83
2024/01/29 06:59:46;;;;;;;1999.90;999.90;;;3.00;99.90;;;;;;5023693;28;20112;-83
2024/01/29 07:02:12;;;;;;;1999.90;999.90;;;4.20;99.90;;;;;;5024180;28;20101;-83
2024/01/29 07:04:38;;;;;;;1999.90;999.90;;;3.10;99.90;;;;;;5007211;28;20172;-82
2024/01/29 07:07:03;;;;;;;1999.90;999.90;;;3.80;99.90;;;;;;5023892;28;20541;-83
2024/01/29 07:09:31;;;;;;;1999.90;999.90;;;3.90;99.90;;;;;;5007552;28;20038;-83
2024/01/29 07:11:57;;;;;;;1999.90;999.90;;;3.10;99.90;;;;;;5008143;28;20446;-82
2024/01/29 07:14:23;;;;;;;1999.90;999.90;;;4.20;99.90;;;;;;5007419;28;20111;-82
2024/01/29 07:16:52;;;;;;;1999.90;999.90;;;3.10;99.90;;;;;;5008506;28;20076;-83
2024/01/29 07:19:23;;;;;;;1999.90;999.90;;;3.00;99.90;;;;;;5007650;28;20065;-83
2024/01/29 07:21:50;;;;;;;1999.90;999.90;;;3.60;99.90;;;;;;5024779;28;20053;-83
2024/01/29 07:24:16;;;;;;;1999.90;999.90;;;3.00;99.90;;;;;;5008972;28;20065;-84
2024/01/29 07:26:42;;;;;;;1999.90;999.90;;;3.00;99.90;;;;;;5008596;28;20046;-84
2024/01/29 07:29:07;;;;;;;1999.90;999.90;;;3.00;99.90;;;;;;5008256;28;20105;-83
2024/01/29 07:31:33;;;;;;;1999.90;999.90;;;3.50;99.90;;;;;;5008317;28;20068;-83
2024/01/29 07:33:59;;;;;;;1999.90;999.90;;;3.00;99.90;;;;;;5006965;28;20066;-83
2024/01/29 07:36:26;;;;;;;1999.90;999.90;;;2.70;99.90;;;;;;5025143;28;20360;-83
2024/01/29 07:38:51;;;;;;;1999.90;999.90;;;3.80;99.90;;;;;;5008421;28;20064;-83
2024/01/29 07:41:17;;;;;;;1999.90;999.90;;;3.70;99.90;;;;;;5023872;28;20046;-83
2024/01/29 07:43:43;;;;;;;1999.90;999.90;;;3.00;99.90;;;;;;5007852;28;20048;-82
2024/01/29 07:46:10;;;;;;;1999.90;999.90;;;3.00;99.90;;;;;;5006183;28;20527;-82
2024/01/29 07:48:35;;;;;;;1999.90;999.90;;;4.50;99.90;;;;;;5006147;28;20034;-83
2024/01/29 07:51:01;;;;;;;1999.90;999.90;;;4.00;99.90;;;;;;5006550;28;20068;-83
2024/01/29 07:53:27;;;;;;;1999.90;999.90;;;3.10;99.90;;;;;;5008395;28;20041;-83
2024/01/29 07:55:52;;;;;;;1999.90;999.90;;;3.20;99.90;;;;;;5023522;28;20041;-82
2024/01/29 07:58:18;;;;;;;1999.90;999.90;;;3.20;99.90;;;;;;5006196;28;20025;-83
2024/01/29 08:00:44;;;;;;;1999.90;999.90;;;3.20;99.90;;;;;;5007324;28;20041;-84
2024/01/29 08:03:09;;;;;;;1999.90;999.90;;;3.90;99.90;;;;;;5007389;28;20033;-83
2024/01/29 08:05:35;;;;;;;1999.90;999.90;;;3.30;99.90;;;;;;5007020;28;20038;-83
2024/01/29 08:08:01;;;;;;;1999.90;999.90;;;3.60;99.90;;;;;;5022482;28;20038;-82
2024/01/29 08:10:26;;;;;;;1999.90;999.90;;;3.40;99.90;;;;;;5006125;28;20025;-83
2024/01/29 08:12:53;;;;;;;1999.90;999.90;;;4.30;99.90;;;;;;5007298;28;20141;-83
2024/01/29 08:15:19;;;;;;;1999.90;999.90;;;4.40;99.90;;;;;;5007093;28;20057;-83
2024/01/29 08:17:44;;;;;;;1999.90;999.90;;;3.60;99.90;;;;;;5006046;28;20117;-82
2024/01/29 08:20:10;;;;;;;1999.90;999.90;;;4.70;99.90;;;;;;5004873;28;20106;-83
2024/01/29 08:22:36;;;;;;;1999.90;999.90;;;4.10;99.90;;;;;;5007571;28;20033;-83
2024/01/29 08:25:02;;;;;;;1999.90;999.90;;;3.70;99.90;;;;;;5007727;28;20184;-84
2024/01/29 08:27:29;;;;;;;1999.90;999.90;;;3.80;99.90;;;;;;5024635;28;20109;-84
2024/01/29 08:29:54;;;;;;;1999.90;999.90;;;4.90;99.90;;;;;;5023713;28;20046;-83
2024/01/29 08:32:22;;;;;;;1999.90;999.90;;;3.90;99.90;;;;;;5007120;28;20057;-84
2024/01/29 08:34:49;;;;;;;1999.90;999.90;;;4.00;99.90;;;;;;5007433;28;20038;-84
2024/01/29 08:37:14;;;;;;;1999.90;999.90;;;4.10;99.90;;;;;;5023646;28;20077;-83
2024/01/29 08:39:40;;;;;;;1999.90;999.90;;;4.20;99.90;;;;;;5007211;28;20030;-83
2024/01/29 08:42:06;;;;;;;1999.90;999.90;;;4.30;99.90;;;;;;5007527;28;20133;-84
2024/01/29 08:44:32;;;;;;;1999.90;999.90;;;5.30;99.90;;;;;;5008752;28;20034;-84
2024/01/29 08:46:58;;;;;;;1999.90;999.90;;;4.90;99.90;;;;;;5011077;28;20080;-84
2024/01/29 08:49:23;;;;;;;1999.90;999.90;;;5.80;99.90;;;;;;5011013;28;20399;-83
2024/01/29 08:51:49;;;;;;;1999.90;999.90;;;4.60;99.90;;;;;;5011129;28;20120;-83
2024/01/29 08:54:15;;;;;;;1999.90;999.90;;;4.70;99.90;;;;;;5011129;28;20049;-85
2024/01/29 08:56:41;;;;;;;1999.90;999.90;;;4.70;99.90;;;;;;5010860;28;20085;-84
2024/01/29 08:59:07;;;;;;;1999.90;999.90;;;5.10;99.90;;;;;;5010620;28;20210;-82
2024/01/29 09:01:33;;;;;;;1999.90;999.90;;;5.90;99.90;;;;;;5010836;28;20045;-83
2024/01/29 09:03:59;;;;;;;1999.90;999.90;;;6.20;99.90;;;;;;5010509;28;20042;-82
2024/01/29 09:06:24;;;;;;;1999.90;999.90;;;5.00;99.90;;;;;;5026663;28;20038;-83
2024/01/29 09:08:50;;;;;;;1999.90;999.90;;;5.00;99.90;;;;;;5010804;28;20042;-83
2024/01/29 09:11:16;;;;;;;1999.90;999.90;;;5.10;99.90;;;;;;5027529;28;20046;-84
2024/01/29 09:13:42;;;;;;;1999.90;999.90;;;5.30;99.90;;;;;;5043670;28;20058;-83
2024/01/29 09:16:09;;;;;;;1999.90;999.90;;;6.30;99.90;;;;;;5043343;28;20072;-83
2024/01/29 09:18:34;;;;;;;1999.90;999.90;;;5.20;99.90;;;;;;5011628;28;20053;-83
2024/01/29 09:21:00;;;;;;;1999.90;999.90;;;5.30;99.90;;;;;;5011479;28;20041;-83
2024/01/29 09:23:29;;;;;;;1999.90;999.90;;;5.30;99.90;;;;;;5010199;28;20076;-83
2024/01/29 09:25:55;;;;;;;1999.90;999.90;;;5.40;99.90;;;;;;5009828;28;20046;-83
2024/01/29 09:28:20;;;;;;;1999.90;999.90;;;5.60;99.90;;;;;;5011067;28;20072;-84
2024/01/29 09:30:46;;;;;;;1999.90;999.90;;;5.70;99.90;;;;;;5010450;28;20048;-84
2024/01/29 09:33:13;;;;;;;1999.90;999.90;;;6.10;99.90;;;;;;5010819;28;20141;-84
2024/01/29 09:35:38;;;;;;;1999.90;999.90;;;6.00;99.90;;;;;;5009744;28;20053;-83
2024/01/29 09:38:04;;;;;;;1999.90;999.90;;;6.50;99.90;;;;;;5010139;28;20068;-82
2024/01/29 09:40:30;;;;;;;1999.90;999.90;;;6.40;99.90;;;;;;5025334;28;20479;-83
2024/01/29 09:42:59;;;;;;;1999.90;999.90;;;5.90;99.90;;;;;;5009813;28;20122;-82
2024/01/29 09:45:26;;;;;;;1999.90;999.90;;;5.70;99.90;;;;;;5009457;28;20453;-84
2024/01/29 09:47:52;;;;;;;1999.90;999.90;;;6.70;99.90;;;;;;5009486;28;20042;-83
2024/01/29 09:50:19;;;;;;;1999.90;999.90;;;5.80;99.90;;;;;;5008600;28;20052;-82
2024/01/29 09:52:48;;;;;;;1999.90;999.90;;;5.80;99.90;;;;;;4992769;28;20117;-83
2024/01/29 09:55:14;;;;;;;1999.90;999.90;;;6.60;99.90;;;;;;5007932;28;20049;-83
2024/01/29 09:57:40;;;;;;;1999.90;999.90;;;5.90;99.90;;;;;;5008641;28;20057;-83
2024/01/29 10:00:07;;;;;;;1999.90;999.90;;;6.70;99.90;;;;;;5009592;28;20056;-83
2024/01/29 10:02:36;;;;;;;1999.90;999.90;;;6.00;99.90;;;;;;5008323;28;20042;-83
2024/01/29 10:05:06;;;;;;;1999.90;999.90;;;6.80;99.90;;;;;;5009051;28;20072;-83
2024/01/29 10:07:33;;;;;;;1999.90;999.90;;;6.10;99.90;;;;;;4992144;28;20034;-83
2024/01/29 10:10:02;;;;;;;1999.90;999.90;;;6.10;99.90;;;;;;5037445;28;20052;-82
2024/01/29 10:12:28;;;;;;;1999.90;999.90;;;6.10;99.90;;;;;;5025532;28;20041;-82
2024/01/29 10:14:57;;;;;;;1999.90;999.90;;;6.10;99.90;;;;;;5008582;28;20045;-83
2024/01/29 10:17:24;;;;;;;1999.90;999.90;;;6.10;99.90;;;;;;5008837;28;20037;-83
2024/01/29 10:19:49;;;;;;;1999.90;999.90;;;6.60;99.90;;;;;;5008321;28;20029;-82
2024/01/29 10:22:16;;;;;;;1999.90;999.90;;;6.10;99.90;;;;;;5025632;28;20045;-82
2024/01/29 10:24:45;;;;;;;1999.90;999.90;;;6.10;99.90;;;;;;5009425;28;20073;-82
2024/01/29 10:27:13;;;;;;;1999.90;999.90;;;6.60;99.90;;;;;;4993519;28;20050;-83
2024/01/29 10:29:49;;;;;;;1999.90;999.90;;;6.10;99.90;;;;;;5024795;28;20045;-82
2024/01/29 10:32:14;;;;;;;1999.90;999.90;;;6.90;99.90;;;;;;5008953;28;20049;-83
2024/01/29 10:34:43;;;;;;;1999.90;999.90;;;6.10;99.90;;;;;;5026473;28;20053;-84
2024/01/29 10:37:10;;;;;;;1999.90;999.90;;;5.60;99.90;;;;;;5008253;28;20045;-83
2024/01/29 10:39:36;;;;;;;1999.90;999.90;;;6.20;99.90;;;;;;5009423;28;20038;-84
2024/01/29 10:42:02;;;;;;;1999.90;999.90;;;6.20;99.90;;;;;;5009600;28;20482;-84
2024/01/29 10:44:32;;;;;;;1999.90;999.90;;;6.30;99.90;;;;;;5009553;28;20057;-83
2024/01/29 10:46:59;;;;;;;1999.90;999.90;;;6.30;99.90;;;;;;5009520;28;20053;-83
2024/01/29 10:49:29;;;;;;;1999.90;999.90;;;6.40;99.90;;;;;;5009903;28;20037;-83
2024/01/29 10:51:56;;;;;;;1999.90;999.90;;;6.40;99.90;;;;;;5025143;28;20077;-84
2024/01/29 10:54:23;;;;;;;1999.90;999.90;;;6.40;99.90;;;;;;5008670;28;20049;-84
2024/01/29 10:56:50;;;;;;;1999.90;999.90;;;6.40;99.90;;;;;;5009060;28;20041;-83
2024/01/29 10:59:20;;;;;;;1999.90;999.90;;;7.30;99.90;;;;;;5009372;28;20038;-82
2024/01/29 11:01:47;;;;;;;1999.90;999.90;;;6.70;99.90;;;;;;5007520;28;20042;-83
2024/01/29 11:04:16;;;;;;;1999.90;999.90;;;7.60;99.90;;;;;;5008250;28;20034;-82
2024/01/29 11:06:48;;;;;;;1999.90;999.90;;;6.60;99.90;;;;;;5007630;28;20077;-83
2024/01/29 11:09:20;;;;;;;1999.90;999.90;;;6.70;99.90;;;;;;5008575;28;20038;-83
2024/01/29 11:11:46;;;;;;;1999.90;999.90;;;6.80;99.90;;;;;;5007514;28;20083;-83
2024/01/29 11:14:12;;;;;;;1999.90;999.90;;;6.80;99.90;;;;;;5008080;28;20046;-83
2024/01/29 11:16:39;;;;;;;1999.90;999.90;;;6.30;99.90;;;;;;5008145;28;20042;-83
2024/01/29 11:19:05;;;;;;;1999.90;999.90;;;7.70;99.90;;;;;;5007572;28;20125;-83
2024/01/29 11:21:31;;;;;;;1999.90;999.90;;;7.00;99.90;;;;;;5023807;28;20030;-84
2024/01/29 11:23:58;;;;;;;1999.90;999.90;;;7.50;99.90;;;;;;5008131;28;20065;-83
2024/01/29 11:26:28;;;;;;;1999.90;999.90;;;8.10;99.90;;;;;;5008282;28;20512;-83
2024/01/29 11:29:01;;;;;;;1999.90;999.90;;;7.10;99.90;;;;;;5008141;28;20052;-83
2024/01/29 11:31:41;;;;;;;1999.90;999.90;;;7.20;99.90;;;;;;5008169;28;20044;-84
2024/01/29 11:34:07;;;;;;;1999.90;999.90;;;7.40;99.90;;;;;;5008174;28;20096;-82
2024/01/29 11:36:36;;;;;;;1999.90;999.90;;;7.40;99.90;;;;;;5007722;28;20033;-84
2024/01/29 11:39:03;;;;;;;1999.90;999.90;;;7.70;99.90;;;;;;5007434;28;20033;-82
2024/01/29 11:41:31;;;;;;;1999.90;999.90;;;7.50;99.90;;;;;;5023506;28;20126;-83
2024/01/29 11:43:57;;;;;;;1999.90;999.90;;;7.60;99.90;;;;;;5008109;28;20243;-83
2024/01/29 11:46:27;;;;;;;1999.90;999.90;;;7.70;99.90;;;;;;5008330;28;20041;-83
2024/01/29 11:49:01;;;;;;;1999.90;999.90;;;8.20;99.90;;;;;;4988635;28;20042;-82
2024/01/29 11:51:29;;;;;;;1999.90;999.90;;;8.00;99.90;;;;;;5014541;28;20041;-83
2024/01/29 11:53:55;;;;;;;1999.90;999.90;;;8.10;99.90;;;;;;5007921;28;20462;-82
2024/01/29 11:56:21;;;;;;;1999.90;999.90;;;8.10;99.90;;;;;;5007451;28;20038;-82
2024/01/29 11:59:01;;;;;;;1999.90;999.90;;;8.20;99.90;;;;;;5023838;28;20046;-82
2024/01/29 12:01:33;;;;;;;1999.90;999.90;;;8.20;99.90;;;;;;5019584;28;20037;-82
2024/01/29 12:03:59;;;;;;;1999.90;999.90;;;8.30;99.90;;;;;;5003680;28;20030;-83
2024/01/29 12:06:26;;;;;;;1999.90;999.90;;;8.30;99.90;;;;;;5007216;28;20494;-83